createdAt,value
2017-01-12T00:00:27.981Z,18.7
2017-01-12T00:01:38.723Z,18.61
2017-01-12T00:02:49.071Z,18.57
2017-01-12T00:03:59.804Z,18.55
2017-01-12T00:05:10.543Z,18.64
2017-01-12T00:06:20.489Z,18.6
2017-01-12T00:07:30.821Z,18.55
2017-01-12T00:08:41.541Z,18.63
2017-01-12T00:09:51.860Z,18.64
2017-01-12T00:11:01.025Z,18.6
2017-01-12T00:12:11.380Z,18.55
2017-01-12T00:13:22.129Z,18.6
2017-01-12T00:14:32.841Z,18.57
2017-01-12T00:15:43.568Z,18.61
2017-01-12T00:16:54.291Z,18.6
2017-01-12T00:18:05.024Z,18.57
2017-01-12T00:19:15.750Z,18.63
2017-01-12T00:20:26.463Z,18.6
2017-01-12T00:21:37.192Z,18.57
2017-01-12T00:22:47.935Z,18.61
2017-01-12T00:23:58.267Z,18.67
2017-01-12T00:25:09.013Z,18.55
2017-01-12T00:26:19.758Z,18.7
2017-01-12T00:27:30.090Z,18.58
2017-01-12T00:28:40.013Z,18.61
2017-01-12T00:29:49.950Z,18.63
2017-01-12T00:30:59.499Z,18.58
2017-01-12T00:32:10.224Z,18.64
2017-01-12T00:33:20.941Z,18.53
2017-01-12T00:34:31.264Z,18.58
2017-01-12T00:35:41.984Z,18.6
2017-01-12T00:36:52.713Z,18.58
2017-01-12T00:38:03.436Z,18.57
2017-01-12T00:39:13.365Z,18.55
2017-01-12T00:40:23.698Z,18.57
2017-01-12T00:41:33.628Z,18.55
2017-01-12T00:42:43.947Z,18.61
2017-01-12T00:43:54.674Z,18.6
2017-01-12T00:45:04.632Z,18.58
2017-01-12T00:46:14.965Z,18.57
2017-01-12T00:47:24.926Z,18.67
2017-01-12T00:48:35.262Z,18.63
2017-01-12T00:49:45.985Z,18.61
2017-01-12T00:50:55.903Z,18.52
2017-01-12T00:52:05.847Z,18.58
2017-01-12T00:53:16.177Z,18.58
2017-01-12T00:54:26.507Z,18.58
2017-01-12T00:55:37.281Z,18.6
2017-01-12T00:56:48.017Z,18.57
2017-01-12T00:57:58.763Z,18.61
2017-01-12T00:59:09.086Z,18.58
2017-01-12T01:00:19.402Z,18.52
2017-01-12T01:01:29.741Z,18.58
2017-01-12T01:02:40.141Z,18.58
2017-01-12T01:03:50.880Z,18.52
2017-01-12T01:05:01.601Z,18.63
2017-01-12T01:06:12.330Z,18.58
2017-01-12T01:07:22.656Z,18.6
2017-01-12T01:08:33.376Z,18.58
2017-01-12T01:09:44.096Z,18.6
2017-01-12T01:10:54.829Z,18.57
2017-01-12T01:12:05.172Z,18.63
2017-01-12T01:13:15.098Z,18.58
2017-01-12T01:14:25.831Z,18.63
2017-01-12T01:15:36.171Z,18.6
2017-01-12T01:16:46.925Z,18.48
2017-01-12T01:17:57.252Z,18.57
2017-01-12T01:19:07.582Z,18.53
2017-01-12T01:20:17.923Z,18.49
2017-01-12T01:21:28.654Z,18.58
2017-01-12T01:22:39.383Z,18.57
2017-01-12T01:23:49.722Z,18.58
2017-01-12T01:25:00.499Z,18.61
2017-01-12T01:26:10.823Z,18.55
2017-01-12T01:27:21.568Z,18.58
2017-01-12T01:28:32.302Z,18.58
2017-01-12T01:29:42.653Z,18.55
2017-01-12T01:30:52.574Z,18.61
2017-01-12T01:32:03.299Z,18.57
2017-01-12T01:33:13.629Z,18.6
2017-01-12T01:34:23.955Z,18.57
2017-01-12T01:35:34.694Z,18.6
2017-01-12T01:36:45.408Z,18.57
2017-01-12T01:37:55.337Z,18.55
2017-01-12T01:39:05.667Z,18.52
2017-01-12T01:40:15.993Z,18.57
2017-01-12T01:41:26.346Z,18.57
2017-01-12T01:42:37.079Z,18.57
2017-01-12T01:43:47.805Z,18.53
2017-01-12T01:44:58.521Z,18.58
2017-01-12T01:46:09.259Z,18.58
2017-01-12T01:47:19.985Z,18.53
2017-01-12T01:48:30.324Z,18.55
2017-01-12T01:49:41.044Z,18.64
2017-01-12T01:50:50.971Z,18.55
2017-01-12T01:52:01.682Z,18.57
2017-01-12T01:53:12.002Z,18.66
2017-01-12T01:54:22.732Z,18.57
2017-01-12T01:55:33.077Z,18.6
2017-01-12T01:56:43.401Z,18.58
2017-01-12T01:57:54.137Z,18.57
2017-01-12T01:59:05.267Z,18.57
2017-01-12T02:00:15.615Z,18.58
2017-01-12T02:01:25.949Z,18.53
2017-01-12T02:02:36.270Z,18.57
2017-01-12T02:03:46.609Z,18.55
2017-01-12T02:04:56.955Z,18.61
2017-01-12T02:06:07.284Z,18.61
2017-01-12T02:07:17.622Z,18.58
2017-01-12T02:08:27.569Z,18.55
2017-01-12T02:09:37.886Z,18.52
2017-01-12T02:10:48.212Z,18.61
2017-01-12T02:11:58.539Z,18.58
2017-01-12T02:13:08.868Z,18.58
2017-01-12T02:14:19.198Z,18.58
2017-01-12T02:15:29.913Z,18.58
2017-01-12T02:16:40.647Z,18.55
2017-01-12T02:17:50.568Z,18.57
2017-01-12T02:19:00.898Z,18.57
2017-01-12T02:20:11.618Z,18.6
2017-01-12T02:21:21.547Z,18.6
2017-01-12T02:22:31.899Z,18.58
2017-01-12T02:23:42.236Z,18.61
2017-01-12T02:24:52.978Z,18.57
2017-01-12T02:26:03.694Z,18.55
2017-01-12T02:27:14.031Z,18.61
2017-01-12T02:28:24.748Z,18.58
2017-01-12T02:29:35.474Z,18.6
2017-01-12T02:30:46.233Z,18.58
2017-01-12T02:31:56.947Z,18.6
2017-01-12T02:33:07.279Z,18.61
2017-01-12T02:34:18.006Z,18.57
2017-01-12T02:35:28.729Z,18.61
2017-01-12T02:36:39.045Z,18.61
2017-01-12T02:37:49.763Z,18.57
2017-01-12T02:39:00.483Z,18.58
2017-01-12T02:40:11.196Z,18.58
2017-01-12T02:41:21.529Z,18.61
2017-01-12T02:42:31.859Z,18.6
2017-01-12T02:43:42.188Z,18.57
2017-01-12T02:44:52.915Z,18.63
2017-01-12T02:46:04.016Z,18.58
2017-01-12T02:47:14.339Z,18.58
2017-01-12T02:48:25.059Z,18.61
2017-01-12T02:49:35.392Z,18.67
2017-01-12T02:50:45.709Z,18.58
2017-01-12T02:51:56.423Z,18.57
2017-01-12T02:53:07.152Z,18.53
2017-01-12T02:54:17.888Z,18.6
2017-01-12T02:55:28.212Z,18.55
2017-01-12T02:56:38.538Z,18.61
2017-01-12T02:57:48.468Z,18.71
2017-01-12T02:58:59.806Z,18.58
2017-01-12T03:00:10.142Z,18.67
2017-01-12T03:01:20.887Z,18.64
2017-01-12T03:02:30.808Z,18.58
2017-01-12T03:03:41.147Z,18.64
2017-01-12T03:04:51.480Z,18.61
2017-01-12T03:06:01.403Z,18.61
2017-01-12T03:07:12.152Z,18.63
2017-01-12T03:08:22.478Z,18.55
2017-01-12T03:09:33.201Z,18.58
2017-01-12T03:10:43.168Z,18.57
2017-01-12T03:11:53.893Z,18.55
2017-01-12T03:13:04.642Z,18.58
2017-01-12T03:14:14.600Z,18.6
2017-01-12T03:15:24.529Z,18.57
2017-01-12T03:16:34.472Z,18.6
2017-01-12T03:17:44.799Z,18.6
2017-01-12T03:18:55.320Z,18.6
2017-01-12T03:20:05.643Z,18.55
2017-01-12T03:21:15.960Z,18.61
2017-01-12T03:22:26.677Z,18.55
2017-01-12T03:23:37.010Z,18.67
2017-01-12T03:24:46.949Z,18.61
2017-01-12T03:25:57.666Z,18.58
2017-01-12T03:27:07.996Z,18.57
2017-01-12T03:28:18.722Z,18.55
2017-01-12T03:29:29.478Z,18.55
2017-01-12T03:30:39.827Z,18.63
2017-01-12T03:31:50.162Z,18.64
2017-01-12T03:33:00.917Z,18.6
2017-01-12T03:34:11.237Z,18.6
2017-01-12T03:35:21.573Z,18.7
2017-01-12T03:36:32.310Z,18.67
2017-01-12T03:37:42.633Z,18.63
2017-01-12T03:38:52.975Z,18.64
2017-01-12T03:40:03.311Z,18.63
2017-01-12T03:41:14.025Z,18.6
2017-01-12T03:42:24.757Z,18.55
2017-01-12T03:43:35.091Z,18.64
2017-01-12T03:44:45.808Z,18.57
2017-01-12T03:45:56.131Z,18.6
2017-01-12T03:47:06.847Z,18.66
2017-01-12T03:48:17.574Z,18.61
2017-01-12T03:49:28.306Z,18.63
2017-01-12T03:50:39.055Z,18.6
2017-01-12T03:51:48.988Z,18.61
2017-01-12T03:52:59.718Z,18.61
2017-01-12T03:54:10.451Z,18.58
2017-01-12T03:55:20.780Z,18.61
2017-01-12T03:56:30.704Z,18.58
2017-01-12T03:57:41.040Z,18.58
2017-01-12T03:58:50.982Z,18.58
2017-01-12T04:00:01.734Z,18.58
2017-01-12T04:01:12.067Z,18.63
2017-01-12T04:02:22.026Z,18.57
2017-01-12T04:03:32.359Z,18.57
2017-01-12T04:04:42.675Z,18.58
2017-01-12T04:05:53.402Z,18.55
2017-01-12T04:07:04.112Z,18.58
2017-01-12T04:08:14.439Z,18.55
2017-01-12T04:09:25.160Z,18.57
2017-01-12T04:10:35.877Z,18.58
2017-01-12T04:11:46.209Z,18.7
2017-01-12T04:12:56.539Z,18.55
2017-01-12T04:14:06.894Z,18.58
2017-01-12T04:15:17.608Z,18.57
2017-01-12T04:16:28.334Z,18.6
2017-01-12T04:17:38.661Z,18.55
2017-01-12T04:18:48.997Z,18.57
2017-01-12T04:19:59.332Z,18.58
2017-01-12T04:21:09.819Z,18.61
2017-01-12T04:22:19.758Z,18.7
2017-01-12T04:23:29.688Z,18.55
2017-01-12T04:24:39.612Z,18.6
2017-01-12T04:25:50.373Z,18.6
2017-01-12T04:27:01.138Z,18.58
2017-01-12T04:28:11.475Z,18.63
2017-01-12T04:29:21.804Z,18.6
2017-01-12T04:30:31.721Z,18.58
2017-01-12T04:31:42.051Z,18.6
2017-01-12T04:32:52.377Z,18.6
2017-01-12T04:34:02.303Z,18.7
2017-01-12T04:35:13.017Z,18.61
2017-01-12T04:36:23.343Z,18.58
2017-01-12T04:37:33.868Z,18.57
2017-01-12T04:38:44.582Z,18.6
2017-01-12T04:39:54.909Z,18.53
2017-01-12T04:41:04.847Z,18.55
2017-01-12T04:42:14.777Z,18.64
2017-01-12T04:43:24.700Z,18.58
2017-01-12T04:44:35.439Z,18.57
2017-01-12T04:45:45.759Z,18.6
2017-01-12T04:46:55.695Z,18.58
2017-01-12T04:48:06.428Z,18.61
2017-01-12T04:49:17.152Z,18.6
2017-01-12T04:50:27.474Z,18.55
2017-01-12T04:51:38.195Z,18.61
2017-01-12T04:52:48.550Z,18.6
2017-01-12T04:53:58.886Z,18.6
2017-01-12T04:55:09.599Z,18.55
2017-01-12T04:56:20.341Z,18.61
2017-01-12T04:57:31.065Z,18.57
2017-01-12T04:58:41.797Z,18.57
2017-01-12T04:59:52.520Z,18.58
2017-01-12T05:01:03.234Z,18.58
2017-01-12T05:02:13.957Z,18.58
2017-01-12T05:03:23.509Z,18.61
2017-01-12T05:04:33.439Z,18.58
2017-01-12T05:05:43.374Z,18.55
2017-01-12T05:06:54.104Z,18.64
2017-01-12T05:08:04.831Z,18.58
2017-01-12T05:09:15.554Z,18.68
2017-01-12T05:10:26.316Z,18.61
2017-01-12T05:11:37.035Z,18.55
2017-01-12T05:12:47.363Z,18.66
2017-01-12T05:13:58.086Z,18.6
2017-01-12T05:15:08.809Z,18.55
2017-01-12T05:16:19.146Z,18.64
2017-01-12T05:17:29.470Z,18.61
2017-01-12T05:18:40.201Z,18.55
2017-01-12T05:19:50.940Z,18.58
2017-01-12T05:21:01.261Z,18.58
2017-01-12T05:22:11.196Z,18.58
2017-01-12T05:23:21.528Z,18.64
2017-01-12T05:24:32.242Z,18.57
2017-01-12T05:25:42.578Z,18.58
2017-01-12T05:26:53.308Z,18.61
2017-01-12T05:28:03.637Z,18.53
2017-01-12T05:29:13.986Z,18.67
2017-01-12T05:30:24.716Z,18.58
2017-01-12T05:31:35.439Z,18.6
2017-01-12T05:32:45.372Z,18.58
2017-01-12T05:33:55.689Z,18.55
2017-01-12T05:35:06.022Z,18.55
2017-01-12T05:36:16.745Z,18.57
2017-01-12T05:37:26.709Z,18.61
2017-01-12T05:38:37.432Z,18.64
2017-01-12T05:39:48.165Z,18.6
2017-01-12T05:40:58.894Z,18.58
2017-01-12T05:42:08.828Z,18.45
2017-01-12T05:43:19.452Z,18.55
2017-01-12T05:44:30.185Z,18.6
2017-01-12T05:45:40.515Z,18.58
2017-01-12T05:46:50.860Z,18.6
2017-01-12T05:48:00.387Z,18.58
2017-01-12T05:49:11.113Z,18.53
2017-01-12T05:50:21.436Z,18.52
2017-01-12T05:51:31.772Z,18.45
2017-01-12T05:52:42.101Z,18.46
2017-01-12T05:53:52.025Z,18.51
2017-01-12T05:55:02.351Z,18.48
2017-01-12T05:56:12.296Z,18.57
2017-01-12T05:57:23.167Z,18.48
2017-01-12T05:58:33.515Z,18.53
2017-01-12T05:59:43.444Z,18.55
2017-01-12T06:00:53.768Z,18.48
2017-01-12T06:02:04.738Z,18.52
2017-01-12T06:03:14.687Z,18.49
2017-01-12T06:04:25.035Z,18.49
2017-01-12T06:05:35.368Z,18.49
2017-01-12T06:06:45.685Z,18.46
2017-01-12T06:07:56.014Z,18.48
2017-01-12T06:09:06.968Z,18.46
2017-01-12T06:10:17.304Z,18.31
2017-01-12T06:11:28.041Z,18.39
2017-01-12T06:12:38.389Z,18.45
2017-01-12T06:13:48.729Z,18.37
2017-01-12T06:14:59.077Z,18.37
2017-01-12T06:16:09.032Z,18.42
2017-01-12T06:17:19.804Z,18.28
2017-01-12T06:18:30.133Z,18.39
2017-01-12T06:19:40.856Z,18.45
2017-01-12T06:20:51.182Z,18.45
2017-01-12T06:22:01.516Z,18.27
2017-01-12T06:23:11.871Z,18.3
2017-01-12T06:24:22.194Z,18.28
2017-01-12T06:25:32.920Z,18.36
2017-01-12T06:26:43.256Z,18.28
2017-01-12T06:27:53.592Z,18.3
2017-01-12T06:29:03.922Z,18.34
2017-01-12T06:30:14.645Z,18.46
2017-01-12T06:31:24.987Z,18.23
2017-01-12T06:32:35.710Z,18.27
2017-01-12T06:33:46.437Z,18.41
2017-01-12T06:34:55.964Z,18.42
2017-01-12T06:36:06.703Z,18.51
2017-01-12T06:37:17.045Z,18.48
2017-01-12T06:38:27.771Z,18.53
2017-01-12T06:39:38.123Z,18.51
2017-01-12T06:40:48.456Z,18.57
2017-01-12T06:41:59.178Z,18.6
2017-01-12T06:43:09.102Z,18.57
2017-01-12T06:44:19.425Z,18.58
2017-01-12T06:45:28.964Z,18.52
2017-01-12T06:46:39.312Z,18.51
2017-01-12T06:47:50.029Z,18.46
2017-01-12T06:49:00.762Z,18.52
2017-01-12T06:50:11.520Z,18.58
2017-01-12T06:51:21.865Z,18.53
2017-01-12T06:52:32.636Z,18.63
2017-01-12T06:53:43.408Z,18.53
2017-01-12T06:54:54.153Z,18.6
2017-01-12T06:56:04.476Z,18.51
2017-01-12T06:57:15.208Z,18.58
2017-01-12T06:58:25.948Z,18.48
2017-01-12T06:59:36.670Z,18.6
2017-01-12T07:00:46.997Z,18.6
2017-01-12T07:01:57.342Z,18.6
2017-01-12T07:03:07.703Z,18.57
2017-01-12T07:04:18.458Z,18.61
2017-01-12T07:05:28.388Z,18.74
2017-01-12T07:06:38.749Z,18.7
2017-01-12T07:07:49.492Z,18.57
2017-01-12T07:09:00.240Z,18.64
2017-01-12T07:10:10.967Z,18.68
2017-01-12T07:11:20.896Z,18.67
2017-01-12T07:12:31.223Z,18.61
2017-01-12T07:13:41.552Z,18.73
2017-01-12T07:14:52.288Z,18.61
2017-01-12T07:16:02.609Z,18.6
2017-01-12T07:17:12.941Z,18.7
2017-01-12T07:18:23.687Z,18.64
2017-01-12T07:19:33.642Z,18.6
2017-01-12T07:20:44.000Z,18.7
2017-01-12T07:21:54.333Z,18.61
2017-01-12T07:23:04.698Z,18.66
2017-01-12T07:24:15.028Z,18.64
2017-01-12T07:25:25.741Z,18.71
2017-01-12T07:26:36.481Z,18.68
2017-01-12T07:27:46.848Z,18.67
2017-01-12T07:28:57.255Z,18.64
2017-01-12T07:30:07.572Z,18.71
2017-01-12T07:31:17.505Z,18.61
2017-01-12T07:32:28.273Z,18.58
2017-01-12T07:33:39.010Z,18.7
2017-01-12T07:34:49.748Z,18.66
2017-01-12T07:35:59.670Z,18.67
2017-01-12T07:37:09.980Z,18.73
2017-01-12T07:38:20.324Z,18.79
2017-01-12T07:39:30.260Z,18.7
2017-01-12T07:40:40.996Z,18.7
2017-01-12T07:41:51.352Z,18.71
2017-01-12T07:43:01.685Z,18.76
2017-01-12T07:44:12.411Z,18.73
2017-01-12T07:45:22.744Z,18.68
2017-01-12T07:46:33.067Z,18.63
2017-01-12T07:47:43.405Z,18.71
2017-01-12T07:48:54.131Z,18.71
2017-01-12T07:50:04.872Z,18.76
2017-01-12T07:51:15.593Z,18.67
2017-01-12T07:52:26.004Z,18.74
2017-01-12T07:53:36.354Z,18.73
2017-01-12T07:54:46.690Z,18.7
2017-01-12T07:55:57.021Z,18.7
2017-01-12T07:57:07.369Z,18.76
2017-01-12T07:58:17.715Z,18.71
2017-01-12T07:59:28.499Z,18.7
2017-01-12T08:00:38.838Z,18.79
2017-01-12T08:01:49.181Z,18.82
2017-01-12T08:02:59.910Z,18.76
2017-01-12T08:04:09.856Z,18.85
2017-01-12T08:05:20.200Z,18.86
2017-01-12T08:06:30.559Z,18.85
2017-01-12T08:07:40.930Z,18.91
2017-01-12T08:08:51.287Z,18.88
2017-01-12T08:10:02.090Z,18.91
2017-01-12T08:11:12.039Z,18.82
2017-01-12T08:12:22.772Z,18.88
2017-01-12T08:13:32.707Z,18.89
2017-01-12T08:14:42.656Z,18.92
2017-01-12T08:15:52.657Z,18.89
2017-01-12T08:17:02.990Z,18.94
2017-01-12T08:18:13.348Z,18.88
2017-01-12T08:19:24.116Z,18.89
2017-01-12T08:20:34.490Z,18.89
2017-01-12T08:21:44.830Z,18.94
2017-01-12T08:22:55.176Z,18.89
2017-01-12T08:24:05.580Z,18.89
2017-01-12T08:25:16.346Z,18.91
2017-01-12T08:26:27.150Z,18.89
2017-01-12T08:27:37.883Z,18.89
2017-01-12T08:28:48.631Z,18.96
2017-01-12T08:29:58.968Z,18.97
2017-01-12T08:31:09.332Z,18.97
2017-01-12T08:32:19.691Z,19
2017-01-12T08:33:30.436Z,18.98
2017-01-12T08:34:41.167Z,18.97
2017-01-12T08:35:51.908Z,18.97
2017-01-12T08:37:02.653Z,18.91
2017-01-12T08:38:12.623Z,18.98
2017-01-12T08:39:23.358Z,18.92
2017-01-12T08:40:33.308Z,18.94
2017-01-12T08:41:43.657Z,18.89
2017-01-12T08:42:54.431Z,18.91
2017-01-12T08:44:05.184Z,19.01
2017-01-12T08:45:15.919Z,19.08
2017-01-12T08:46:26.668Z,19.08
2017-01-12T08:47:37.005Z,18.98
2017-01-12T08:48:47.587Z,19
2017-01-12T08:49:57.557Z,19.05
2017-01-12T08:51:08.313Z,19.08
2017-01-12T08:52:18.728Z,19.01
2017-01-12T08:53:28.733Z,18.98
2017-01-12T08:54:38.713Z,18.98
2017-01-12T08:55:49.462Z,18.98
2017-01-12T08:56:59.085Z,19.01
2017-01-12T08:58:09.044Z,19
2017-01-12T08:59:19.795Z,19
2017-01-12T09:00:28.960Z,19.01
2017-01-12T09:01:39.293Z,18.94
2017-01-12T09:02:50.032Z,18.96
2017-01-12T09:04:00.401Z,18.92
2017-01-12T09:05:10.758Z,18.91
2017-01-12T09:06:21.514Z,18.96
2017-01-12T09:07:32.269Z,18.94
2017-01-12T09:08:42.650Z,18.91
2017-01-12T09:09:53.390Z,18.94
2017-01-12T09:11:03.760Z,18.94
2017-01-12T09:12:14.495Z,18.92
2017-01-12T09:13:25.236Z,18.91
2017-01-12T09:14:36.024Z,19.01
2017-01-12T09:15:46.760Z,18.97
2017-01-12T09:16:57.498Z,18.92
2017-01-12T09:18:07.845Z,18.96
2017-01-12T09:19:17.786Z,18.97
2017-01-12T09:20:28.151Z,19
2017-01-12T09:21:38.894Z,18.91
2017-01-12T09:22:48.843Z,19.04
2017-01-12T09:23:58.782Z,18.94
2017-01-12T09:25:09.098Z,18.91
2017-01-12T09:26:18.648Z,18.89
2017-01-12T09:27:29.416Z,18.86
2017-01-12T09:28:39.758Z,19
2017-01-12T09:29:49.720Z,18.94
2017-01-12T09:31:00.489Z,18.97
2017-01-12T09:32:11.244Z,18.97
2017-01-12T09:33:22.164Z,18.96
2017-01-12T09:34:32.563Z,18.94
2017-01-12T09:35:42.924Z,18.88
2017-01-12T09:36:53.662Z,19
2017-01-12T09:38:04.021Z,19.04
2017-01-12T09:39:14.747Z,18.96
2017-01-12T09:40:24.696Z,19
2017-01-12T09:41:35.442Z,19.04
2017-01-12T09:42:46.165Z,19.04
2017-01-12T09:43:56.901Z,19.07
2017-01-12T09:45:07.641Z,19.05
2017-01-12T09:46:18.396Z,18.98
2017-01-12T09:47:29.164Z,18.92
2017-01-12T09:48:39.951Z,18.92
2017-01-12T09:49:50.306Z,18.97
2017-01-12T09:51:00.250Z,18.98
2017-01-12T09:52:10.595Z,19.08
2017-01-12T09:53:21.340Z,19.07
2017-01-12T09:54:31.740Z,19.07
2017-01-12T09:55:42.486Z,19.11
2017-01-12T09:56:52.448Z,19.07
2017-01-12T09:58:03.210Z,19.09
2017-01-12T09:59:13.558Z,19.08
2017-01-12T10:00:23.504Z,19.12
2017-01-12T10:01:34.301Z,19.11
2017-01-12T10:02:45.046Z,19.19
2017-01-12T10:03:55.426Z,19.16
2017-01-12T10:05:06.167Z,19.08
2017-01-12T10:06:16.925Z,19.07
2017-01-12T10:07:27.267Z,19.07
2017-01-12T10:08:38.016Z,19.09
2017-01-12T10:09:47.567Z,19.08
2017-01-12T10:10:57.926Z,19.07
2017-01-12T10:12:07.872Z,19.09
2017-01-12T10:13:18.221Z,19.12
2017-01-12T10:14:28.996Z,19.04
2017-01-12T10:15:39.344Z,19.05
2017-01-12T10:16:49.729Z,19.07
2017-01-12T10:18:00.496Z,19.08
2017-01-12T10:19:10.832Z,19.07
2017-01-12T10:20:21.205Z,19.09
2017-01-12T10:21:31.936Z,19.04
2017-01-12T10:22:42.675Z,19.07
2017-01-12T10:23:53.472Z,19.09
2017-01-12T10:25:04.218Z,19
2017-01-12T10:26:14.160Z,19.05
2017-01-12T10:27:24.189Z,19
2017-01-12T10:28:34.957Z,19
2017-01-12T10:29:45.324Z,19.01
2017-01-12T10:30:56.070Z,19.04
2017-01-12T10:32:06.855Z,19.11
2017-01-12T10:33:17.638Z,19.07
2017-01-12T10:34:28.007Z,19.08
2017-01-12T10:35:38.364Z,19.12
2017-01-12T10:36:48.732Z,19.05
2017-01-12T10:37:59.017Z,19.05
2017-01-12T10:39:09.354Z,19.11
2017-01-12T10:40:20.086Z,19.16
2017-01-12T10:41:30.019Z,19.08
2017-01-12T10:42:40.368Z,19.19
2017-01-12T10:43:49.923Z,19.17
2017-01-12T10:45:00.656Z,19.19
2017-01-12T10:46:10.994Z,19.19
2017-01-12T10:47:20.940Z,19.22
2017-01-12T10:48:31.695Z,19.26
2017-01-12T10:49:41.648Z,19.26
2017-01-12T10:50:52.000Z,19.23
2017-01-12T10:52:02.361Z,19.27
2017-01-12T10:53:12.764Z,19.26
2017-01-12T10:54:23.516Z,19.3
2017-01-12T10:55:33.868Z,19.32
2017-01-12T10:56:44.607Z,19.41
2017-01-12T10:57:54.949Z,19.37
2017-01-12T10:59:05.299Z,19.41
2017-01-12T11:00:15.643Z,19.38
2017-01-12T11:01:26.390Z,19.32
2017-01-12T11:02:36.399Z,19.39
2017-01-12T11:03:46.768Z,19.37
2017-01-12T11:04:57.515Z,19.34
2017-01-12T11:06:08.263Z,19.37
2017-01-12T11:07:19.012Z,19.29
2017-01-12T11:08:29.421Z,19.35
2017-01-12T11:09:39.758Z,19.38
2017-01-12T11:10:50.109Z,19.42
2017-01-12T11:12:00.876Z,19.38
2017-01-12T11:13:10.832Z,19.37
2017-01-12T11:14:20.789Z,19.35
2017-01-12T11:15:31.540Z,19.35
2017-01-12T11:16:42.310Z,19.35
2017-01-12T11:17:53.052Z,19.32
2017-01-12T11:19:03.404Z,19.35
2017-01-12T11:20:13.768Z,19.35
2017-01-12T11:21:24.110Z,19.37
2017-01-12T11:22:34.446Z,19.3
2017-01-12T11:23:45.173Z,19.32
2017-01-12T11:24:55.924Z,19.44
2017-01-12T11:26:06.666Z,19.45
2017-01-12T11:27:16.615Z,19.39
2017-01-12T11:28:27.367Z,19.52
2017-01-12T11:29:37.325Z,19.44
2017-01-12T11:30:48.041Z,19.45
2017-01-12T11:31:58.789Z,19.45
2017-01-12T11:33:08.749Z,19.49
2017-01-12T11:34:19.168Z,19.49
2017-01-12T11:35:29.929Z,19.49
2017-01-12T11:36:40.309Z,19.45
2017-01-12T11:37:51.052Z,19.37
2017-01-12T11:39:01.787Z,19.38
2017-01-12T11:40:12.528Z,19.42
2017-01-12T11:41:23.252Z,19.42
2017-01-12T11:42:33.994Z,19.42
2017-01-12T11:43:44.338Z,19.42
2017-01-12T11:44:54.269Z,19.41
2017-01-12T11:46:04.608Z,19.52
2017-01-12T11:47:14.960Z,19.49
2017-01-12T11:48:24.505Z,19.49
2017-01-12T11:49:34.859Z,19.49
2017-01-12T11:50:45.606Z,19.52
2017-01-12T11:51:56.350Z,19.39
2017-01-12T11:53:06.714Z,19.39
2017-01-12T11:54:17.462Z,19.42
2017-01-12T11:55:28.187Z,19.44
2017-01-12T11:56:38.936Z,19.53
2017-01-12T11:57:49.288Z,19.42
2017-01-12T11:58:59.834Z,19.48
2017-01-12T12:00:10.177Z,19.45
2017-01-12T12:01:20.911Z,19.49
2017-01-12T12:02:30.847Z,19.45
2017-01-12T12:03:41.183Z,19.38
2017-01-12T12:04:52.372Z,19.37
2017-01-12T12:06:03.500Z,19.37
2017-01-12T12:07:13.451Z,19.39
2017-01-12T12:08:24.182Z,19.39
2017-01-12T12:09:34.129Z,19.38
2017-01-12T12:10:44.073Z,19.41
2017-01-12T12:11:54.404Z,19.35
2017-01-12T12:13:05.146Z,19.37
2017-01-12T12:14:15.095Z,19.34
2017-01-12T12:15:25.828Z,19.41
2017-01-12T12:16:36.590Z,19.35
2017-01-12T12:17:46.941Z,19.38
2017-01-12T12:18:57.666Z,19.37
2017-01-12T12:20:08.012Z,19.35
2017-01-12T12:21:17.948Z,19.37
2017-01-12T12:22:28.297Z,19.38
2017-01-12T12:23:38.642Z,19.35
2017-01-12T12:24:48.319Z,19.41
2017-01-12T12:25:59.055Z,19.38
2017-01-12T12:27:09.784Z,19.39
2017-01-12T12:28:19.347Z,19.41
2017-01-12T12:29:30.166Z,19.39
2017-01-12T12:30:40.919Z,19.44
2017-01-12T12:31:51.671Z,19.49
2017-01-12T12:33:01.621Z,19.45
2017-01-12T12:34:11.988Z,19.53
2017-01-12T12:35:22.726Z,19.38
2017-01-12T12:36:33.078Z,19.42
2017-01-12T12:37:43.034Z,19.47
2017-01-12T12:38:53.012Z,19.44
2017-01-12T12:40:02.963Z,19.44
2017-01-12T12:41:12.942Z,19.48
2017-01-12T12:42:22.894Z,19.45
2017-01-12T12:43:33.680Z,19.41
2017-01-12T12:44:44.425Z,19.44
2017-01-12T12:45:55.175Z,19.48
2017-01-12T12:47:05.905Z,19.48
2017-01-12T12:48:15.866Z,19.41
2017-01-12T12:49:26.234Z,19.39
2017-01-12T12:50:36.163Z,19.44
2017-01-12T12:51:46.109Z,19.39
2017-01-12T12:52:56.829Z,19.45
2017-01-12T12:54:07.562Z,19.41
2017-01-12T12:55:18.301Z,19.41
2017-01-12T12:56:29.021Z,19.37
2017-01-12T12:57:39.812Z,19.48
2017-01-12T12:58:50.538Z,19.39
2017-01-12T13:00:01.283Z,19.38
2017-01-12T13:01:12.061Z,19.39
2017-01-12T13:02:22.035Z,19.41
2017-01-12T13:03:31.585Z,19.39
2017-01-12T13:04:41.937Z,19.49
2017-01-12T13:05:51.889Z,19.42
2017-01-12T13:07:02.219Z,19.47
2017-01-12T13:08:12.185Z,19.41
2017-01-12T13:09:22.587Z,19.37
2017-01-12T13:10:32.526Z,19.41
2017-01-12T13:11:43.268Z,19.35
2017-01-12T13:12:53.607Z,19.3
2017-01-12T13:14:03.604Z,19.32
2017-01-12T13:15:13.157Z,19.32
2017-01-12T13:16:23.951Z,19.34
2017-01-12T13:17:34.303Z,19.39
2017-01-12T13:18:45.039Z,19.37
2017-01-12T13:19:55.776Z,19.32
2017-01-12T13:21:05.762Z,19.37
2017-01-12T13:22:16.086Z,19.32
2017-01-12T13:23:26.429Z,19.32
2017-01-12T13:24:37.164Z,19.37
2017-01-12T13:25:47.507Z,19.38
2017-01-12T13:26:57.462Z,19.38
2017-01-12T13:28:08.243Z,19.35
2017-01-12T13:29:18.563Z,19.41
2017-01-12T13:30:29.298Z,19.49
2017-01-12T13:31:38.834Z,19.38
2017-01-12T13:32:49.194Z,19.41
2017-01-12T13:33:59.555Z,19.39
2017-01-12T13:35:09.888Z,19.39
2017-01-12T13:36:20.255Z,19.39
2017-01-12T13:37:30.980Z,19.38
2017-01-12T13:38:41.718Z,19.37
2017-01-12T13:39:52.048Z,19.37
2017-01-12T13:41:01.990Z,19.37
2017-01-12T13:42:12.755Z,19.35
2017-01-12T13:43:23.094Z,19.41
2017-01-12T13:44:32.848Z,19.37
2017-01-12T13:45:43.203Z,19.35
2017-01-12T13:46:53.933Z,19.37
2017-01-12T13:48:04.294Z,19.42
2017-01-12T13:49:15.024Z,19.38
2017-01-12T13:50:25.763Z,19.35
2017-01-12T13:51:36.128Z,19.39
2017-01-12T13:52:46.851Z,19.38
2017-01-12T13:53:56.793Z,19.42
2017-01-12T13:55:06.349Z,19.35
2017-01-12T13:56:16.701Z,19.37
2017-01-12T13:57:27.091Z,19.35
2017-01-12T13:58:37.446Z,19.34
2017-01-12T13:59:48.183Z,19.37
2017-01-12T14:00:58.518Z,19.38
2017-01-12T14:02:09.270Z,19.34
2017-01-12T14:03:20.025Z,19.34
2017-01-12T14:04:30.768Z,19.41
2017-01-12T14:05:40.706Z,19.42
2017-01-12T14:06:50.262Z,19.37
2017-01-12T14:08:00.608Z,19.34
2017-01-12T14:09:10.954Z,19.35
2017-01-12T14:10:21.699Z,19.32
2017-01-12T14:11:32.429Z,19.32
2017-01-12T14:12:43.174Z,19.32
2017-01-12T14:13:53.514Z,19.32
2017-01-12T14:15:03.890Z,19.32
2017-01-12T14:16:14.241Z,19.29
2017-01-12T14:17:24.609Z,19.35
2017-01-12T14:18:35.357Z,19.32
2017-01-12T14:19:45.755Z,19.35
2017-01-12T14:20:55.689Z,19.26
2017-01-12T14:22:06.078Z,19.23
2017-01-12T14:23:16.430Z,19.24
2017-01-12T14:24:26.363Z,19.3
2017-01-12T14:25:36.302Z,19.34
2017-01-12T14:26:46.639Z,19.38
2017-01-12T14:27:56.988Z,19.27
2017-01-12T14:29:06.946Z,19.34
2017-01-12T14:30:17.705Z,19.34
2017-01-12T14:31:28.047Z,19.26
2017-01-12T14:32:38.396Z,19.37
2017-01-12T14:33:49.143Z,19.29
2017-01-12T14:34:59.481Z,19.26
2017-01-12T14:36:09.456Z,19.22
2017-01-12T14:37:19.804Z,19.3
2017-01-12T14:38:30.138Z,19.34
2017-01-12T14:39:40.077Z,19.29
2017-01-12T14:40:50.404Z,19.24
2017-01-12T14:42:01.147Z,19.32
2017-01-12T14:43:11.907Z,19.24
2017-01-12T14:44:22.648Z,19.19
2017-01-12T14:45:33.396Z,19.24
2017-01-12T14:46:43.741Z,19.3
2017-01-12T14:47:54.484Z,19.19
2017-01-12T14:49:05.217Z,19.17
2017-01-12T14:50:15.558Z,19.24
2017-01-12T14:51:25.909Z,19.24
2017-01-12T14:52:36.252Z,19.23
2017-01-12T14:53:45.808Z,19.32
2017-01-12T14:54:56.530Z,19.23
2017-01-12T14:56:06.877Z,19.2
2017-01-12T14:57:17.235Z,19.24
2017-01-12T14:58:27.956Z,19.2
2017-01-12T14:59:38.762Z,19.2
2017-01-12T15:00:49.511Z,19.3
2017-01-12T15:01:59.843Z,19.16
2017-01-12T15:03:10.580Z,19.27
2017-01-12T15:04:20.931Z,19.15
2017-01-12T15:05:31.307Z,19.19
2017-01-12T15:06:41.230Z,19.2
2017-01-12T15:07:51.569Z,19.17
2017-01-12T15:09:01.916Z,19.23
2017-01-12T15:10:11.865Z,19.19
2017-01-12T15:11:22.628Z,19.24